Time;durP1;ratioP1;P1;durP2;ratioP2;P2;SDS_P1;SDS_P2;PMS_P1;PMS_P2;Temp;Humidity;BMP_temperature;BMP_pressure;BME280_temperature;BME280_humidity;BME280_pressure;Samples;Min_cycle;Max_cycle;Signal;HPM_P1;HPM_P2
2021/01/28 00:00:35;;;;;;;36.63;16.95;;;;;;;;;;4892696;29;20414;-80
2021/01/28 00:03:02;;;;;;;36.97;17.37;;;;;;;;;;4908914;29;21044;-80
2021/01/28 00:05:29;;;;;;;30.23;15.70;;;;;;;;;;4892571;29;20405;-81
2021/01/28 00:07:56;;;;;;;30.52;15.93;;;;;;;;;;4908791;29;20422;-80
2021/01/28 00:10:23;;;;;;;30.05;15.25;;;;;;;;;;4906291;29;21194;-81
2021/01/28 00:12:49;;;;;;;34.60;15.77;;;;;;;;;;4892311;29;21101;-81
2021/01/28 00:15:16;;;;;;;28.98;14.88;;;;;;;;;;4893476;29;20420;-80
2021/01/28 00:17:42;;;;;;;23.38;13.48;;;;;;;;;;4906248;29;20410;-81
2021/01/28 00:20:19;;;;;;;28.40;12.93;;;;;;;;;;4892075;29;20432;-80
2021/01/28 00:22:45;;;;;;;26.30;11.57;;;;;;;;;;4892293;29;20483;-81
2021/01/28 00:25:13;;;;;;;23.52;12.20;;;;;;;;;;4907611;29;20409;-81
2021/01/28 00:27:39;;;;;;;21.73;11.52;;;;;;;;;;4892407;29;20408;-81
2021/01/28 00:30:06;;;;;;;20.35;10.18;;;;;;;;;;4892450;29;20432;-80
2021/01/28 00:32:32;;;;;;;20.00;10.15;;;;;;;;;;4892231;29;20437;-81
2021/01/28 00:34:58;;;;;;;21.88;9.77;;;;;;;;;;4893068;29;20440;-81
2021/01/28 00:37:24;;;;;;;20.65;9.65;;;;;;;;;;4891928;29;20881;-81
2021/01/28 00:39:50;;;;;;;21.80;10.27;;;;;;;;;;4892908;29;20445;-81
2021/01/28 00:42:16;;;;;;;19.08;10.10;;;;;;;;;;4891795;29;20424;-80
2021/01/28 00:44:42;;;;;;;17.80;9.68;;;;;;;;;;4892559;29;20405;-80
2021/01/28 00:47:08;;;;;;;15.38;9.02;;;;;;;;;;4908671;29;20512;-80
2021/01/28 00:49:34;;;;;;;16.50;8.80;;;;;;;;;;4893281;29;20472;-81
2021/01/28 00:52:00;;;;;;;19.90;9.00;;;;;;;;;;4892672;29;20413;-81
2021/01/28 00:54:26;;;;;;;15.05;9.35;;;;;;;;;;4891683;29;20424;-81
2021/01/28 00:56:52;;;;;;;16.40;9.07;;;;;;;;;;4892009;29;20397;-81
2021/01/28 00:59:18;;;;;;;19.95;9.80;;;;;;;;;;4889712;29;20845;-81
2021/01/28 01:01:44;;;;;;;16.45;8.88;;;;;;;;;;4904908;29;20929;-81
2021/01/28 01:04:10;;;;;;;19.92;8.48;;;;;;;;;;4906246;29;20808;-80
2021/01/28 01:06:36;;;;;;;14.77;8.55;;;;;;;;;;4904619;29;20446;-81
2021/01/28 01:09:02;;;;;;;19.50;10.02;;;;;;;;;;4892576;29;20413;-81
2021/01/28 01:11:28;;;;;;;16.42;8.65;;;;;;;;;;4891449;29;20441;-81
2021/01/28 01:13:54;;;;;;;14.02;8.50;;;;;;;;;;4891944;29;20540;-81
2021/01/28 01:16:20;;;;;;;15.85;8.82;;;;;;;;;;4891517;29;20417;-81
2021/01/28 01:18:46;;;;;;;17.40;8.50;;;;;;;;;;4891034;29;20421;-81
2021/01/28 01:21:12;;;;;;;18.23;9.27;;;;;;;;;;4891850;29;20499;-81
2021/01/28 01:23:38;;;;;;;11.93;7.30;;;;;;;;;;4892174;29;20529;-81
2021/01/28 01:26:04;;;;;;;17.03;8.43;;;;;;;;;;4890931;29;20892;-81
2021/01/28 01:28:30;;;;;;;17.20;9.35;;;;;;;;;;4906331;29;20428;-80
2021/01/28 01:30:57;;;;;;;14.68;7.88;;;;;;;;;;4905880;29;20402;-81
2021/01/28 01:33:23;;;;;;;14.27;8.40;;;;;;;;;;4904754;29;20461;-81
2021/01/28 01:35:49;;;;;;;12.80;7.97;;;;;;;;;;4905793;29;20416;-81
2021/01/28 01:38:15;;;;;;;14.65;7.60;;;;;;;;;;4891929;29;20409;-81
2021/01/28 01:40:43;;;;;;;13.68;7.65;;;;;;;;;;4891423;29;20804;-80
2021/01/28 01:43:10;;;;;;;13.90;7.43;;;;;;;;;;4888661;29;20416;-83
2021/01/28 01:45:36;;;;;;;15.37;7.67;;;;;;;;;;4906201;29;20981;-80
2021/01/28 01:48:05;;;;;;;13.85;7.35;;;;;;;;;;4904491;29;20468;-81
2021/01/28 01:50:34;;;;;;;14.90;8.02;;;;;;;;;;4890890;29;20409;-81
2021/01/28 01:53:02;;;;;;;13.43;7.72;;;;;;;;;;4891870;29;20452;-81
2021/01/28 01:55:29;;;;;;;13.98;7.40;;;;;;;;;;4907216;29;20419;-81
2021/01/28 01:57:56;;;;;;;10.25;6.35;;;;;;;;;;4890001;29;20578;-80
2021/01/28 02:00:22;;;;;;;12.88;7.13;;;;;;;;;;4909172;29;20886;-81
2021/01/28 02:02:50;;;;;;;14.15;8.10;;;;;;;;;;4904420;29;21199;-80
2021/01/28 02:05:23;;;;;;;13.10;8.05;;;;;;;;;;4890846;29;20413;-81
2021/01/28 02:07:49;;;;;;;13.32;7.93;;;;;;;;;;4891602;29;20421;-81
2021/01/28 02:10:17;;;;;;;13.13;7.00;;;;;;;;;;4908195;29;20444;-81
2021/01/28 02:12:43;;;;;;;14.70;7.63;;;;;;;;;;4887854;29;21081;-81
2021/01/28 02:15:10;;;;;;;11.53;7.17;;;;;;;;;;4905095;29;20405;-81
2021/01/28 02:17:37;;;;;;;11.98;6.95;;;;;;;;;;4905798;29;20915;-81
2021/01/28 02:20:09;;;;;;;9.82;6.70;;;;;;;;;;4908704;29;20429;-81
2021/01/28 02:22:58;;;;;;;10.23;7.00;;;;;;;;;;4910537;29;20488;-81
2021/01/28 02:25:35;;;;;;;12.75;7.47;;;;;;;;;;4894000;29;20444;-81
2021/01/28 02:28:05;;;;;;;13.43;7.18;;;;;;;;;;4912208;29;21072;-81
2021/01/28 02:30:32;;;;;;;10.02;6.55;;;;;;;;;;4907370;29;20748;-81
2021/01/28 02:32:58;;;;;;;12.45;6.93;;;;;;;;;;4893675;29;20443;-81
2021/01/28 02:35:26;;;;;;;14.13;7.25;;;;;;;;;;4894118;29;20401;-80
2021/01/28 02:37:52;;;;;;;13.75;7.13;;;;;;;;;;4894883;29;20409;-81
2021/01/28 02:40:19;;;;;;;15.40;7.95;;;;;;;;;;4893027;29;20923;-81
2021/01/28 02:42:45;;;;;;;12.13;6.90;;;;;;;;;;4893635;29;20427;-82
2021/01/28 02:45:16;;;;;;;13.23;7.13;;;;;;;;;;4909537;29;20416;-81
2021/01/28 02:47:42;;;;;;;11.40;7.18;;;;;;;;;;4907095;29;21012;-81
2021/01/28 02:50:08;;;;;;;11.25;6.82;;;;;;;;;;4894698;29;20448;-81
2021/01/28 02:52:35;;;;;;;11.23;6.85;;;;;;;;;;4895380;29;20447;-81
2021/01/28 02:55:01;;;;;;;12.35;7.25;;;;;;;;;;4894777;29;20409;-81
2021/01/28 02:57:27;;;;;;;12.45;7.28;;;;;;;;;;4894959;29;20479;-81
2021/01/28 02:59:53;;;;;;;13.77;7.72;;;;;;;;;;4908104;29;20422;-82
2021/01/28 03:02:20;;;;;;;17.80;8.93;;;;;;;;;;4909348;29;20413;-81
2021/01/28 03:04:46;;;;;;;16.95;8.68;;;;;;;;;;4893451;29;20418;-81
2021/01/28 03:07:13;;;;;;;13.50;7.95;;;;;;;;;;4896800;29;20488;-80
2021/01/28 03:09:39;;;;;;;17.42;8.77;;;;;;;;;;4893515;29;20424;-81
2021/01/28 03:12:06;;;;;;;19.02;8.27;;;;;;;;;;4910502;29;20435;-80
2021/01/28 03:14:32;;;;;;;16.73;8.32;;;;;;;;;;4893147;29;20413;-81
2021/01/28 03:16:58;;;;;;;16.05;8.02;;;;;;;;;;4893785;29;20449;-80
2021/01/28 03:19:24;;;;;;;12.00;7.47;;;;;;;;;;4893194;29;20429;-81
2021/01/28 03:21:50;;;;;;;13.20;7.20;;;;;;;;;;4910434;29;20425;-82
2021/01/28 03:24:16;;;;;;;11.38;7.00;;;;;;;;;;4911097;29;20499;-81
2021/01/28 03:26:43;;;;;;;13.05;6.80;;;;;;;;;;4893036;29;20417;-80
2021/01/28 03:29:12;;;;;;;12.52;7.28;;;;;;;;;;4908201;29;20473;-81
2021/01/28 03:31:38;;;;;;;12.23;6.80;;;;;;;;;;4893754;29;20453;-81
2021/01/28 03:34:05;;;;;;;12.35;6.85;;;;;;;;;;4894354;29;20508;-81
2021/01/28 03:36:30;;;;;;;11.90;6.70;;;;;;;;;;4892500;29;20916;-82
2021/01/28 03:38:57;;;;;;;12.73;7.10;;;;;;;;;;4894442;29;20481;-81
2021/01/28 03:41:22;;;;;;;12.07;7.07;;;;;;;;;;4893364;29;20413;-81
2021/01/28 03:43:48;;;;;;;13.65;7.13;;;;;;;;;;4907611;29;20499;-81
2021/01/28 03:46:14;;;;;;;18.25;8.05;;;;;;;;;;4892927;29;20420;-81
2021/01/28 03:48:40;;;;;;;19.63;9.13;;;;;;;;;;4893273;29;20855;-81
2021/01/28 03:51:07;;;;;;;12.18;7.70;;;;;;;;;;4893867;29;20428;-81
2021/01/28 03:53:33;;;;;;;14.52;7.50;;;;;;;;;;4893904;29;20520;-81
2021/01/28 03:55:59;;;;;;;10.90;6.70;;;;;;;;;;4893564;29;20512;-81
2021/01/28 03:58:25;;;;;;;13.40;7.25;;;;;;;;;;4892060;29;20409;-81
2021/01/28 04:00:51;;;;;;;14.85;7.57;;;;;;;;;;4892505;29;20902;-81
2021/01/28 04:03:18;;;;;;;13.20;7.82;;;;;;;;;;4908536;29;20424;-81
2021/01/28 04:05:44;;;;;;;10.48;6.88;;;;;;;;;;4895683;29;20923;-81
2021/01/28 04:08:10;;;;;;;10.40;6.38;;;;;;;;;;4892909;29;20504;-81
2021/01/28 04:10:38;;;;;;;13.05;6.50;;;;;;;;;;4893227;29;20453;-80
2021/01/28 04:13:04;;;;;;;11.07;6.47;;;;;;;;;;4891262;29;20447;-82
2021/01/28 04:15:30;;;;;;;9.85;6.15;;;;;;;;;;4906886;29;20420;-81
2021/01/28 04:17:56;;;;;;;10.50;6.47;;;;;;;;;;4892973;29;20504;-81
2021/01/28 04:20:24;;;;;;;10.43;5.78;;;;;;;;;;4907870;29;20439;-80
2021/01/28 04:22:50;;;;;;;10.05;6.07;;;;;;;;;;4907148;29;20748;-80
2021/01/28 04:25:17;;;;;;;11.00;5.97;;;;;;;;;;4892796;29;20428;-81
2021/01/28 04:27:43;;;;;;;10.25;5.38;;;;;;;;;;4892639;29;20417;-80
2021/01/28 04:30:11;;;;;;;10.13;5.55;;;;;;;;;;4908300;29;20409;-80
2021/01/28 04:32:37;;;;;;;9.57;5.10;;;;;;;;;;4892555;29;20525;-81
2021/01/28 04:35:04;;;;;;;10.85;5.22;;;;;;;;;;4892927;29;20413;-80
2021/01/28 04:37:30;;;;;;;10.98;5.30;;;;;;;;;;4893816;29;20409;-80
2021/01/28 04:39:56;;;;;;;13.40;5.38;;;;;;;;;;4908193;29;20910;-80
2021/01/28 04:42:34;;;;;;;11.05;5.82;;;;;;;;;;4907047;29;20796;-81
2021/01/28 04:45:00;;;;;;;12.40;5.45;;;;;;;;;;4907331;29;22137;-80
2021/01/28 04:47:26;;;;;;;9.30;4.50;;;;;;;;;;4891613;29;20421;-80
2021/01/28 04:49:53;;;;;;;10.37;4.33;;;;;;;;;;4891929;29;20441;-81
2021/01/28 04:52:20;;;;;;;6.90;4.47;;;;;;;;;;4892126;29;20959;-80
2021/01/28 04:54:46;;;;;;;9.30;4.32;;;;;;;;;;4892218;29;20401;-81
2021/01/28 04:57:13;;;;;;;9.90;4.82;;;;;;;;;;4892121;29;20423;-80
2021/01/28 04:59:42;;;;;;;9.20;4.15;;;;;;;;;;4892338;29;20493;-80
2021/01/28 05:02:11;;;;;;;8.43;4.20;;;;;;;;;;4890431;29;20441;-80
2021/01/28 05:04:39;;;;;;;9.05;4.50;;;;;;;;;;4891771;29;22118;-80
2021/01/28 05:07:07;;;;;;;9.82;4.88;;;;;;;;;;4893267;29;20963;-80
2021/01/28 05:09:34;;;;;;;9.05;4.97;;;;;;;;;;4892638;29;20736;-80
2021/01/28 05:11:59;;;;;;;11.45;5.00;;;;;;;;;;4891772;29;20419;-79
2021/01/28 05:14:27;;;;;;;8.25;5.05;;;;;;;;;;4892391;29;20417;-79
2021/01/28 05:16:54;;;;;;;11.55;5.25;;;;;;;;;;4905544;29;20417;-81
2021/01/28 05:19:39;;;;;;;10.90;5.57;;;;;;;;;;4905624;29;20935;-79
2021/01/28 05:22:17;;;;;;;9.05;5.78;;;;;;;;;;4891325;29;20421;-81
2021/01/28 05:24:58;;;;;;;12.27;6.45;;;;;;;;;;4891632;29;20945;-80
2021/01/28 05:27:24;;;;;;;12.35;6.97;;;;;;;;;;4905371;29;21099;-80
2021/01/28 05:29:50;;;;;;;13.30;7.43;;;;;;;;;;4892455;29;20420;-80
2021/01/28 05:32:34;;;;;;;12.65;7.88;;;;;;;;;;4890682;29;20421;-81
2021/01/28 05:35:15;;;;;;;14.85;8.35;;;;;;;;;;4891849;29;21081;-80
2021/01/28 05:37:41;;;;;;;14.80;8.77;;;;;;;;;;4905435;29;20567;-79
2021/01/28 05:40:11;;;;;;;14.75;8.55;;;;;;;;;;4890813;29;20411;-80
2021/01/28 05:42:40;;;;;;;17.13;9.68;;;;;;;;;;4906890;29;20430;-81
2021/01/28 05:45:19;;;;;;;16.52;9.93;;;;;;;;;;4904048;29;20427;-81
2021/01/28 05:47:45;;;;;;;17.05;9.75;;;;;;;;;;4904272;29;20450;-81
2021/01/28 05:50:16;;;;;;;14.95;9.45;;;;;;;;;;4906978;29;20456;-81
2021/01/28 05:52:42;;;;;;;15.30;10.00;;;;;;;;;;4905323;29;20429;-80
2021/01/28 05:55:14;;;;;;;16.40;10.00;;;;;;;;;;4906578;29;20400;-80
2021/01/28 05:57:53;;;;;;;15.75;9.50;;;;;;;;;;4892801;29;20413;-81
2021/01/28 06:00:31;;;;;;;14.98;9.55;;;;;;;;;;4905442;29;20447;-80
2021/01/28 06:02:57;;;;;;;14.90;9.38;;;;;;;;;;4904004;29;20425;-80
2021/01/28 06:05:38;;;;;;;17.52;9.80;;;;;;;;;;4890095;29;20409;-80
2021/01/28 06:08:13;;;;;;;16.13;9.52;;;;;;;;;;4890732;29;20421;-81
2021/01/28 06:10:58;;;;;;;14.75;9.35;;;;;;;;;;4890135;29;20409;-81
2021/01/28 06:13:24;;;;;;;15.02;8.30;;;;;;;;;;4905561;29;20752;-81
2021/01/28 06:16:13;;;;;;;16.65;9.10;;;;;;;;;;4904713;29;20515;-80
2021/01/28 06:18:52;;;;;;;14.43;8.30;;;;;;;;;;4904274;29;20448;-81
2021/01/28 06:21:36;;;;;;;17.52;8.52;;;;;;;;;;4891768;29;20530;-81
2021/01/28 06:24:13;;;;;;;13.57;8.13;;;;;;;;;;4905731;29;21009;-80
2021/01/28 06:26:44;;;;;;;12.90;8.00;;;;;;;;;;4890841;29;20417;-81
2021/01/28 06:29:13;;;;;;;13.63;8.38;;;;;;;;;;4905664;29;20832;-80
2021/01/28 06:32:11;;;;;;;15.88;8.15;;;;;;;;;;4906190;29;20929;-81
2021/01/28 06:34:37;;;;;;;15.07;8.32;;;;;;;;;;4884773;29;20425;-80
2021/01/28 06:37:25;;;;;;;12.68;7.70;;;;;;;;;;4907609;29;20600;-81
2021/01/28 06:39:53;;;;;;;12.68;7.53;;;;;;;;;;4906624;29;20413;-81
2021/01/28 06:42:23;;;;;;;12.98;6.93;;;;;;;;;;4907386;29;20416;-80
2021/01/28 06:44:49;;;;;;;12.00;7.20;;;;;;;;;;4890484;29;20468;-80
2021/01/28 06:47:20;;;;;;;12.18;7.05;;;;;;;;;;4890408;29;20417;-80
2021/01/28 06:49:58;;;;;;;12.00;7.85;;;;;;;;;;4907328;29;20429;-81
2021/01/28 06:52:44;;;;;;;16.67;8.68;;;;;;;;;;4904921;29;20453;-80
2021/01/28 06:55:10;;;;;;;12.48;7.85;;;;;;;;;;4906112;29;20431;-80
2021/01/28 06:57:45;;;;;;;12.55;7.78;;;;;;;;;;4891217;29;20425;-79
2021/01/28 07:00:17;;;;;;;13.57;7.78;;;;;;;;;;4903832;29;20417;-80
2021/01/28 07:02:55;;;;;;;12.35;7.22;;;;;;;;;;4893666;29;20915;-80
2021/01/28 07:05:34;;;;;;;13.82;8.10;;;;;;;;;;4907464;29;20906;-80
2021/01/28 07:08:08;;;;;;;13.48;8.30;;;;;;;;;;4894289;29;20409;-80
2021/01/28 07:10:39;;;;;;;12.60;8.07;;;;;;;;;;4892913;29;20409;-80
2021/01/28 07:13:11;;;;;;;13.00;8.55;;;;;;;;;;4894252;29;20445;-80
2021/01/28 07:15:37;;;;;;;14.43;8.43;;;;;;;;;;4893865;29;20428;-81
2021/01/28 07:18:06;;;;;;;13.32;8.60;;;;;;;;;;4894293;29;20409;-81
2021/01/28 07:20:35;;;;;;;12.38;8.32;;;;;;;;;;4889538;29;20438;-80
2021/01/28 07:23:20;;;;;;;14.38;8.27;;;;;;;;;;4890780;29;20422;-80
2021/01/28 07:25:47;;;;;;;13.85;8.60;;;;;;;;;;4886325;29;20668;-81
2021/01/28 07:28:19;;;;;;;13.48;7.93;;;;;;;;;;4885611;29;20415;-81
2021/01/28 07:30:49;;;;;;;13.43;8.55;;;;;;;;;;4888138;29;20477;-80
2021/01/28 07:33:31;;;;;;;14.45;8.48;;;;;;;;;;4890655;29;20535;-82
2021/01/28 07:35:57;;;;;;;14.63;8.52;;;;;;;;;;4889252;29;20430;-80
2021/01/28 07:38:31;;;;;;;14.73;9.07;;;;;;;;;;4888073;29;20589;-81
2021/01/28 07:40:57;;;;;;;17.35;9.38;;;;;;;;;;4889441;29;20450;-80
2021/01/28 07:43:35;;;;;;;14.63;9.03;;;;;;;;;;4890163;29;20573;-79
2021/01/28 07:46:19;;;;;;;14.00;8.93;;;;;;;;;;4885299;29;20793;-80
2021/01/28 07:49:04;;;;;;;14.60;9.35;;;;;;;;;;4887303;29;20422;-82
2021/01/28 07:51:33;;;;;;;13.57;9.20;;;;;;;;;;4882116;29;20434;-81
2021/01/28 07:54:00;;;;;;;14.73;9.45;;;;;;;;;;4883906;29;20450;-82
2021/01/28 07:56:43;;;;;;;13.48;8.80;;;;;;;;;;4888541;29;20415;-82
2021/01/28 07:59:11;;;;;;;13.50;9.23;;;;;;;;;;4888009;29;21095;-81
2021/01/28 08:01:41;;;;;;;13.80;8.65;;;;;;;;;;4891731;29;20421;-81
2021/01/28 08:04:13;;;;;;;15.00;8.43;;;;;;;;;;4890510;29;20407;-81
2021/01/28 08:06:39;;;;;;;15.40;8.95;;;;;;;;;;4891501;29;20435;-81
2021/01/28 08:09:06;;;;;;;14.53;8.37;;;;;;;;;;4880583;29;20410;-81
2021/01/28 08:11:33;;;;;;;15.63;8.50;;;;;;;;;;4887713;29;20459;-82
2021/01/28 08:13:59;;;;;;;13.90;8.57;;;;;;;;;;4892060;29;20454;-82
2021/01/28 08:16:25;;;;;;;12.07;7.95;;;;;;;;;;4889166;29;20454;-82
2021/01/28 08:19:21;;;;;;;13.45;8.20;;;;;;;;;;4884597;29;20426;-82
2021/01/28 08:21:47;;;;;;;12.05;8.00;;;;;;;;;;4897337;29;20433;-81
2021/01/28 08:24:34;;;;;;;10.80;7.70;;;;;;;;;;4908983;29;20919;-81
2021/01/28 08:27:09;;;;;;;11.10;8.05;;;;;;;;;;4894375;29;20425;-82
2021/01/28 08:29:35;;;;;;;15.55;7.70;;;;;;;;;;4894739;29;20420;-81
2021/01/28 08:32:01;;;;;;;11.65;7.57;;;;;;;;;;4915622;29;20405;-83
2021/01/28 08:34:32;;;;;;;13.20;8.10;;;;;;;;;;4894072;29;20398;-82
2021/01/28 08:37:03;;;;;;;12.20;7.47;;;;;;;;;;4895752;29;20393;-82
2021/01/28 08:39:31;;;;;;;11.02;7.40;;;;;;;;;;4907964;29;20420;-81
2021/01/28 08:42:01;;;;;;;14.45;7.30;;;;;;;;;;4895642;29;20401;-82
2021/01/28 08:44:26;;;;;;;11.25;6.95;;;;;;;;;;4911616;29;20405;-82
2021/01/28 08:47:03;;;;;;;12.68;7.35;;;;;;;;;;4907443;29;20401;-82
2021/01/28 08:49:29;;;;;;;10.60;6.88;;;;;;;;;;4909321;29;20467;-82
2021/01/28 08:52:00;;;;;;;11.50;6.35;;;;;;;;;;4894584;29;20929;-82
2021/01/28 08:54:29;;;;;;;11.55;6.95;;;;;;;;;;4891368;29;20800;-82
2021/01/28 08:56:56;;;;;;;11.77;6.82;;;;;;;;;;4895211;29;20452;-81
2021/01/28 08:59:27;;;;;;;11.55;6.75;;;;;;;;;;4913548;29;20389;-83
2021/01/28 09:01:53;;;;;;;9.95;6.63;;;;;;;;;;4893899;29;20541;-82
2021/01/28 09:04:39;;;;;;;12.52;6.93;;;;;;;;;;4894612;29;20405;-81
2021/01/28 09:07:05;;;;;;;9.73;6.10;;;;;;;;;;4888425;29;20418;-83
2021/01/28 09:09:34;;;;;;;11.93;7.13;;;;;;;;;;4895333;29;21013;-83
2021/01/28 09:12:16;;;;;;;10.52;6.13;;;;;;;;;;4909757;29;20473;-84
2021/01/28 09:14:42;;;;;;;10.10;6.43;;;;;;;;;;4894423;29;20496;-82
2021/01/28 09:17:23;;;;;;;11.17;6.33;;;;;;;;;;4877423;29;22829;-83
2021/01/28 09:19:57;;;;;;;10.90;6.80;;;;;;;;;;4908949;29;20507;-82
2021/01/28 09:22:43;;;;;;;9.73;6.25;;;;;;;;;;4890481;29;20474;-82
2021/01/28 09:25:15;;;;;;;12.48;7.22;;;;;;;;;;4885427;29;20456;-83
2021/01/28 09:27:41;;;;;;;10.60;6.55;;;;;;;;;;4897722;29;20417;-86
2021/01/28 09:30:19;;;;;;;10.48;6.38;;;;;;;;;;4905743;29;20404;-84
2021/01/28 09:32:46;;;;;;;9.57;6.57;;;;;;;;;;4897674;29;20429;-84
2021/01/28 09:35:20;;;;;;;11.18;6.97;;;;;;;;;;4913343;29;20402;-83
2021/01/28 09:38:06;;;;;;;9.73;6.43;;;;;;;;;;4897459;29;20466;-82
2021/01/28 09:40:32;;;;;;;10.15;6.05;;;;;;;;;;4890113;29;20787;-83
2021/01/28 09:43:17;;;;;;;10.40;6.65;;;;;;;;;;4907568;29;20413;-82
2021/01/28 09:45:43;;;;;;;9.60;6.10;;;;;;;;;;4909685;29;20481;-83
2021/01/28 09:48:16;;;;;;;11.57;6.53;;;;;;;;;;4893989;29;20488;-84
2021/01/28 09:50:42;;;;;;;11.07;6.85;;;;;;;;;;4890240;29;20948;-83
2021/01/28 09:53:08;;;;;;;11.13;5.85;;;;;;;;;;4900936;29;20464;-84
2021/01/28 09:55:35;;;;;;;8.30;5.75;;;;;;;;;;4892593;29;20463;-84
2021/01/28 09:58:01;;;;;;;10.18;5.70;;;;;;;;;;4890892;29;20448;-83
2021/01/28 10:00:27;;;;;;;8.55;5.18;;;;;;;;;;4893301;29;20405;-82
2021/01/28 10:03:01;;;;;;;8.38;5.25;;;;;;;;;;4890497;29;20409;-83
2021/01/28 10:05:28;;;;;;;9.07;5.05;;;;;;;;;;4903855;29;20484;-84
2021/01/28 10:07:54;;;;;;;8.05;5.00;;;;;;;;;;4906452;29;20413;-82
2021/01/28 10:10:22;;;;;;;8.05;4.97;;;;;;;;;;4901772;29;20409;-83
2021/01/28 10:12:48;;;;;;;16.00;10.43;;;;;;;;;;4905915;29;20433;-82
2021/01/28 10:15:15;;;;;;;9.73;5.30;;;;;;;;;;4890240;29;20416;-83
2021/01/28 10:17:42;;;;;;;8.27;4.83;;;;;;;;;;4890823;29;20397;-83
2021/01/28 10:20:08;;;;;;;8.68;5.10;;;;;;;;;;4892971;29;20813;-82
2021/01/28 10:22:36;;;;;;;9.07;4.93;;;;;;;;;;4886909;29;20511;-81
2021/01/28 10:25:04;;;;;;;8.00;5.07;;;;;;;;;;4902467;29;20399;-81
2021/01/28 10:27:30;;;;;;;8.07;5.53;;;;;;;;;;4885393;29;20467;-83
2021/01/28 10:29:56;;;;;;;14.10;9.80;;;;;;;;;;4887992;29;20426;-83
2021/01/28 10:32:25;;;;;;;10.25;6.05;;;;;;;;;;4885189;29;20502;-85
2021/01/28 10:34:51;;;;;;;7.72;4.90;;;;;;;;;;4894705;29;20498;-83
2021/01/28 10:37:17;;;;;;;7.57;4.78;;;;;;;;;;4889987;29;20501;-82
2021/01/28 10:39:44;;;;;;;7.75;4.85;;;;;;;;;;4889836;29;20490;-81
2021/01/28 10:42:15;;;;;;;9.23;4.87;;;;;;;;;;4893377;29;20450;-81
2021/01/28 10:44:42;;;;;;;7.60;4.70;;;;;;;;;;4893751;29;20414;-81
2021/01/28 10:47:08;;;;;;;7.78;4.65;;;;;;;;;;4909919;29;20406;-81
2021/01/28 10:49:34;;;;;;;8.23;4.70;;;;;;;;;;4893945;29;20705;-81
2021/01/28 10:52:00;;;;;;;7.28;4.68;;;;;;;;;;4910411;29;20403;-82
2021/01/28 10:54:26;;;;;;;7.27;4.90;;;;;;;;;;4893491;29;20510;-84
2021/01/28 10:56:53;;;;;;;7.20;4.80;;;;;;;;;;4909883;29;20407;-82
2021/01/28 10:59:19;;;;;;;8.32;4.97;;;;;;;;;;4892483;29;20760;-82
2021/01/28 11:01:45;;;;;;;8.23;4.70;;;;;;;;;;4894956;29;20457;-81
2021/01/28 11:04:11;;;;;;;8.00;5.20;;;;;;;;;;4891414;29;20924;-81
2021/01/28 11:06:37;;;;;;;9.02;5.22;;;;;;;;;;4894223;29;20399;-82
2021/01/28 11:09:04;;;;;;;9.60;5.35;;;;;;;;;;4891260;29;20419;-81
2021/01/28 11:11:30;;;;;;;9.20;5.60;;;;;;;;;;4892074;29;20427;-81
2021/01/28 11:13:56;;;;;;;9.20;5.57;;;;;;;;;;4876805;29;20436;-81
2021/01/28 11:16:27;;;;;;;8.43;5.60;;;;;;;;;;4887301;29;20889;-82
2021/01/28 11:18:57;;;;;;;8.73;5.80;;;;;;;;;;4870330;29;20409;-83
2021/01/28 11:21:23;;;;;;;10.10;6.25;;;;;;;;;;4858344;29;20456;-81
2021/01/28 11:23:50;;;;;;;8.75;5.50;;;;;;;;;;4869193;29;20944;-82
2021/01/28 11:26:16;;;;;;;9.02;5.88;;;;;;;;;;4874374;29;20415;-82
2021/01/28 11:28:42;;;;;;;9.70;6.30;;;;;;;;;;4876818;29;20410;-82
2021/01/28 11:31:08;;;;;;;9.02;6.32;;;;;;;;;;4861180;29;20428;-83
2021/01/28 11:33:35;;;;;;;10.25;6.63;;;;;;;;;;4874479;29;20459;-82
2021/01/28 11:36:03;;;;;;;10.15;6.95;;;;;;;;;;4859010;29;20424;-83
2021/01/28 11:38:29;;;;;;;12.63;7.80;;;;;;;;;;4883862;29;20452;-82
2021/01/28 11:40:55;;;;;;;9.88;7.32;;;;;;;;;;4863583;29;20424;-82
2021/01/28 11:43:21;;;;;;;11.63;8.20;;;;;;;;;;4869458;29;20808;-82
2021/01/28 11:45:50;;;;;;;10.77;8.15;;;;;;;;;;4904069;29;20409;-83
2021/01/28 11:48:30;;;;;;;10.05;7.82;;;;;;;;;;4911263;29;20409;-87
2021/01/28 11:51:02;;;;;;;10.27;7.68;;;;;;;;;;4912078;29;20405;-84
2021/01/28 11:53:32;;;;;;;10.02;7.25;;;;;;;;;;4911366;29;20448;-84
2021/01/28 11:56:01;;;;;;;10.47;7.77;;;;;;;;;;4908162;29;20437;-85
2021/01/28 11:58:35;;;;;;;10.07;7.10;;;;;;;;;;4894830;29;20936;-88
2021/01/28 12:01:08;;;;;;;10.52;6.72;;;;;;;;;;4909780;29;20878;-86
2021/01/28 12:03:35;;;;;;;9.00;6.75;;;;;;;;;;4909824;29;20413;-85
2021/01/28 12:06:43;;;;;;;9.25;6.57;;;;;;;;;;4910165;29;20475;-88
2021/01/28 12:09:08;;;;;;;7.95;5.72;;;;;;;;;;4911518;29;20718;-85
2021/01/28 12:11:34;;;;;;;9.02;6.22;;;;;;;;;;4894907;29;20409;-82
2021/01/28 12:14:00;;;;;;;7.80;5.50;;;;;;;;;;4900966;29;20997;-82
2021/01/28 12:16:26;;;;;;;8.82;5.18;;;;;;;;;;4896156;29;20409;-81
2021/01/28 12:18:52;;;;;;;7.32;5.07;;;;;;;;;;4897305;29;20753;-85
2021/01/28 12:21:18;;;;;;;8.75;6.00;;;;;;;;;;4894810;29;20742;-81
2021/01/28 12:23:50;;;;;;;7.80;5.22;;;;;;;;;;4888249;29;20409;-86
2021/01/28 12:26:16;;;;;;;8.23;5.55;;;;;;;;;;4894069;29;20476;-83
2021/01/28 12:28:42;;;;;;;8.57;5.55;;;;;;;;;;4894006;29;20409;-84
2021/01/28 12:31:23;;;;;;;8.30;5.50;;;;;;;;;;4897163;29;20410;-88
2021/01/28 12:33:58;;;;;;;8.93;5.90;;;;;;;;;;4896823;29;20461;-87
2021/01/28 12:36:37;;;;;;;8.70;6.10;;;;;;;;;;4894687;29;20405;-86
2021/01/28 12:39:49;;;;;;;9.73;6.85;;;;;;;;;;4910696;29;20425;-88
2021/01/28 12:42:27;;;;;;;9.35;6.78;;;;;;;;;;4894878;29;20432;-86
2021/01/28 12:44:56;;;;;;;10.07;7.55;;;;;;;;;;4909824;29;20923;-84
2021/01/28 12:47:22;;;;;;;10.25;7.30;;;;;;;;;;4887989;29;20413;-85
2021/01/28 12:50:07;;;;;;;11.35;7.70;;;;;;;;;;4897525;29;20431;-89
2021/01/28 12:52:35;;;;;;;11.30;7.80;;;;;;;;;;4891841;29;20436;-84
2021/01/28 12:55:01;;;;;;;11.45;8.40;;;;;;;;;;4909856;29;20773;-83
2021/01/28 12:57:28;;;;;;;11.13;7.80;;;;;;;;;;4892168;29;20412;-83
2021/01/28 12:59:54;;;;;;;9.93;7.30;;;;;;;;;;4894279;29;20419;-82
2021/01/28 13:02:20;;;;;;;10.60;6.93;;;;;;;;;;4909771;29;20496;-83
2021/01/28 13:04:56;;;;;;;9.27;6.10;;;;;;;;;;4893538;29;20500;-85
2021/01/28 13:07:50;;;;;;;7.90;5.13;;;;;;;;;;4909614;29;20785;-85
2021/01/28 13:10:16;;;;;;;7.80;5.35;;;;;;;;;;4890708;29;20425;-82
2021/01/28 13:12:42;;;;;;;8.25;4.78;;;;;;;;;;4902605;29;21085;-82
2021/01/28 13:15:13;;;;;;;7.07;4.38;;;;;;;;;;4891444;29;20409;-83
2021/01/28 13:17:41;;;;;;;6.63;4.47;;;;;;;;;;4908202;29;20401;-84
2021/01/28 13:20:07;;;;;;;6.10;4.15;;;;;;;;;;4894616;29;20985;-83
2021/01/28 13:22:33;;;;;;;8.70;4.90;;;;;;;;;;4893333;29;20409;-82
2021/01/28 13:25:02;;;;;;;6.85;4.88;;;;;;;;;;4888975;29;20473;-85
2021/01/28 13:27:29;;;;;;;6.03;4.07;;;;;;;;;;4904788;29;20489;-85
2021/01/28 13:29:58;;;;;;;6.30;4.25;;;;;;;;;;4894438;29;20440;-85
2021/01/28 13:32:34;;;;;;;6.70;4.78;;;;;;;;;;4893964;29;20734;-84
2021/01/28 13:35:19;;;;;;;7.22;4.75;;;;;;;;;;4909916;29;20405;-85
2021/01/28 13:37:47;;;;;;;8.35;4.90;;;;;;;;;;4894018;29;20405;-83
2021/01/28 13:40:14;;;;;;;7.15;4.90;;;;;;;;;;4894362;29;20417;-83
2021/01/28 13:42:40;;;;;;;6.93;4.80;;;;;;;;;;4890469;29;20409;-83
2021/01/28 13:45:26;;;;;;;8.10;5.22;;;;;;;;;;4910624;29;20875;-84
2021/01/28 13:47:54;;;;;;;7.32;4.90;;;;;;;;;;4913504;29;20435;-84
2021/01/28 13:50:27;;;;;;;7.55;5.03;;;;;;;;;;4909933;29;20892;-85
2021/01/28 13:52:53;;;;;;;9.63;5.10;;;;;;;;;;4908091;29;20432;-83
2021/01/28 13:55:19;;;;;;;7.43;4.97;;;;;;;;;;4905782;29;20476;-84
2021/01/28 13:57:45;;;;;;;7.65;5.30;;;;;;;;;;4902669;29;20433;-83
2021/01/28 14:00:12;;;;;;;7.07;4.60;;;;;;;;;;4900949;29;20488;-83
2021/01/28 14:02:39;;;;;;;8.70;4.70;;;;;;;;;;4910144;29;20460;-82
2021/01/28 14:05:05;;;;;;;8.23;4.90;;;;;;;;;;4908954;29;20429;-82
2021/01/28 14:07:31;;;;;;;6.78;4.60;;;;;;;;;;4910245;29;20397;-84
2021/01/28 14:09:57;;;;;;;7.53;4.97;;;;;;;;;;4890977;29;20407;-84
2021/01/28 14:12:23;;;;;;;6.75;4.95;;;;;;;;;;4907663;29;20967;-83
2021/01/28 14:14:49;;;;;;;8.23;5.30;;;;;;;;;;4897305;29;20476;-84
2021/01/28 14:17:15;;;;;;;8.57;5.85;;;;;;;;;;4917536;29;20405;-83
2021/01/28 14:19:41;;;;;;;7.57;5.77;;;;;;;;;;4899575;29;20413;-83
2021/01/28 14:22:07;;;;;;;8.32;6.15;;;;;;;;;;4915666;29;20484;-83
2021/01/28 14:24:34;;;;;;;7.07;4.40;;;;;;;;;;4894699;29;20397;-84
2021/01/28 14:27:02;;;;;;;7.85;5.05;;;;;;;;;;4898735;29;20409;-82
2021/01/28 14:29:28;;;;;;;7.03;4.78;;;;;;;;;;4914215;29;21129;-83
2021/01/28 14:31:54;;;;;;;9.40;6.38;;;;;;;;;;4896781;29;20529;-84
2021/01/28 14:34:22;;;;;;;7.25;4.70;;;;;;;;;;4897876;29;20516;-84
2021/01/28 14:36:48;;;;;;;6.80;4.65;;;;;;;;;;4903289;29;20410;-83
2021/01/28 14:39:14;;;;;;;6.32;4.25;;;;;;;;;;4909848;29;20408;-82
2021/01/28 14:42:01;;;;;;;7.53;4.90;;;;;;;;;;4916937;29;20409;-86
2021/01/28 14:44:27;;;;;;;9.60;5.18;;;;;;;;;;4899066;29;21092;-84
2021/01/28 14:46:55;;;;;;;13.07;11.45;;;;;;;;;;4895489;29;20393;-84